Latest Coastal Weather Observations for Rundle Island

IDQ60701

Issued at 8:15 pm EST Friday 31 October 2014 (issued every 10 minutes, with the page automatically refreshed every 10 minutes)

About coastal observations | Map of coastal stations | Coastal observations for QLD | Marine services | Other Formats
Station Details ID: 039322 Name: RUNDLE ISLAND Lat: -23.53 Lon: 151.28 Height: 19.8 m
Data from the previous 72 hours. | See also: Recent months at Rundle Island
Date/Time
EST
Temp

°C
Wind Pressure Rain
since 9am
mm
Weather Cloud Vis
km
Sea
Height
m
Swell
Dir
 
Speed
knots
Gust
knots
hPa Trend Height
m
Period
s
Dir
31/08:00pm 23.7 NNE 8 10 1015.5 - - - - - - - - -
31/07:30pm 23.6 NE 9 11 1015.1 - - - - - - - - -
31/07:00pm 23.6 NNE 9 11 1014.8 - - - - - - - - -
31/06:30pm 23.7 NE 10 13 1014.5 - - - - - - - - -
31/06:00pm 23.8 NE 9 11 1014.5 - - - - - - - - -
31/05:30pm 23.9 NE 8 10 1014.1 - - - - - - - - -
31/05:00pm 24.3 NE 7 9 1014.3 - - - - - - - - -
31/04:30pm 24.9 NNE 8 10 1014.2 - - - - - - - - -
31/04:00pm 24.8 NE 8 10 1014.0 - - - - - - - - -
31/03:30pm 24.5 NE 9 11 1014.0 - - - - - - - - -
31/03:00pm 25.1 NE 8 10 1014.0 - - - - - - - - -
31/02:30pm 25.3 NE 7 9 1014.1 - - - - - - - - -
31/02:00pm 25.4 NNE 7 9 1014.5 - - - - - - - - -
31/01:30pm 25.0 NNE 8 10 1014.7 - - - - - - - - -
31/01:00pm 25.7 NE 6 9 1015.2 - - - - - - - - -
31/12:30pm 25.8 NE 7 8 1015.6 - - - - - - - - -
31/12:00pm 25.8 NE 7 9 1015.8 - - - - - - - - -
31/11:30am 25.3 NE 6 8 1016.0 - - - - - - - - -
31/11:00am 25.5 NE 7 8 1016.3 - - - - - - - - -
31/10:30am 25.1 NE 6 7 1016.5 - - - - - - - - -
31/10:00am 25.4 NE 5 7 1016.8 - - - - - - - - -
31/09:30am 25.2 NE 5 6 1016.9 - - - - - - - - -
31/09:00am 24.1 NNE 7 9 1016.8 - - - - - - - - -
31/08:30am 24.3 NNE 6 7 1016.8 - - - - - - - - -
31/08:00am 23.8 NNE 7 8 1016.6 - - - - - - - - -
31/07:30am 23.7 NNE 7 9 1016.6 - - - - - - - - -
31/07:00am 23.3 NNE 6 7 1016.4 - - - - - - - - -
31/06:30am 23.2 N 7 9 1015.9 - - - - - - - - -
31/06:00am 23.2 NNE 5 6 1015.8 - - - - - - - - -
31/05:30am 23.0 NNE 6 7 1015.4 - - - - - - - - -
31/05:00am 22.9 NNE 7 8 1015.0 - - - - - - - - -
31/04:30am 23.0 NE 7 9 1014.7 - - - - - - - - -
31/04:00am 23.0 NNE 8 10 1014.4 - - - - - - - - -
31/03:30am 23.1 NNE 9 10 1014.4 - - - - - - - - -
31/03:00am 23.1 NNE 10 11 1014.2 - - - - - - - - -
31/02:30am 23.2 NNE 9 10 1014.4 - - - - - - - - -
31/02:00am 23.2 N 9 11 1014.5 - - - - - - - - -
31/01:30am 23.4 N 9 10 1014.8 - - - - - - - - -
31/01:00am 23.4 NNE 9 10 1014.4 - - - - - - - - -
31/12:30am 23.3 NNE 7 9 1015.2 - - - - - - - - -
31/12:00am 23.4 NNE 8 9 1015.5 - - - - - - - - -
 
Date/Time
EST
Temp

°C
Wind Pressure Rain
since 9am
mm
Weather Cloud Vis
km
Sea
Height
m
Swell
Dir
 
Speed
knots
Gust
knots
hPa Trend Height
m
Period
s
Dir
30/11:30pm 23.5 NNE 9 11 1015.5 - - - - - - - - -
30/11:00pm 23.4 NE 10 12 1015.4 - - - - - - - - -
30/10:30pm 23.4 NE 10 11 1015.8 - - - - - - - - -
30/10:00pm 23.5 NE 12 13 1015.2 - - - - - - - - -
30/09:30pm 23.6 NNE 12 14 1014.9 - - - - - - - - -
30/09:00pm 23.6 NE 11 13 1015.3 - - - - - - - - -
30/08:30pm 23.6 NE 9 11 1015.4 - - - - - - - - -
30/08:00pm 23.6 NE 8 9 1015.5 - - - - - - - - -
30/07:30pm 23.7 NNE 10 12 1014.7 - - - - - - - - -
30/07:00pm 23.7 NNE 10 11 1014.6 - - - - - - - - -
30/06:30pm 23.8 NNE 10 11 1014.0 - - - - - - - - -
30/06:00pm 23.9 NE 11 13 1013.6 - - - - - - - - -
30/05:30pm 23.9 NE 9 10 1013.5 - - - - - - - - -
30/05:00pm 24.1 NE 9 11 1013.4 - - - - - - - - -
30/04:30pm 24.2 NE 10 12 1013.0 - - - - - - - - -
30/04:00pm 24.4 NE 11 12 1013.0 - - - - - - - - -
30/03:30pm 24.0 NE 11 12 1013.0 - - - - - - - - -
30/03:00pm 24.1 NE 12 14 1013.0 - - - - - - - - -
30/02:30pm 24.3 NE 13 15 1013.2 - - - - - - - - -
30/02:00pm 24.6 NE 13 15 1013.5 - - - - - - - - -
30/01:30pm 24.7 ENE 13 15 1013.8 - - - - - - - - -
30/01:00pm 24.6 ENE 12 14 1014.2 - - - - - - - - -
30/12:30pm 24.9 E 11 13 1014.6 - - - - - - - - -
30/12:00pm 25.1 E 11 12 1015.1 - - - - - - - - -
30/11:30am 25.1 E 10 11 1015.5 - - - - - - - - -
30/11:00am 24.7 E 10 11 1015.8 - - - - - - - - -
30/10:30am 24.7 ENE 10 12 1016.0 - - - - - - - - -
30/10:00am 24.8 ENE 8 9 1016.5 - - - - - - - - -
30/09:30am 25.0 ENE 8 10 1016.7 - - - - - - - - -
30/09:00am 25.5 ENE 5 6 1016.9 - - - - - - - - -
30/08:30am 25.1 ENE 4 6 1017.2 - - - - - - - - -
30/08:00am 24.5 ENE 3 5 1017.1 - - - - - - - - -
30/07:30am 24.1 NE 4 5 1017.1 - - - - - - - - -
30/07:00am 23.3 NNE 5 6 1016.7 - - - - - - - - -
30/06:30am 23.6 NE 4 5 1016.5 - - - - - - - - -
30/06:00am 22.9 NE 6 7 1016.1 - - - - - - - - -
30/05:30am 22.8 NE 7 8 1015.5 - - - - - - - - -
30/05:00am 22.8 NE 6 7 1015.4 - - - - - - - - -
30/04:30am 22.8 ENE 6 7 1014.9 - - - - - - - - -
30/04:00am 22.6 ENE 6 7 1014.5 - - - - - - - - -
30/03:30am 22.8 ENE 7 7 1014.1 - - - - - - - - -
30/03:00am 22.9 E 7 8 1014.0 - - - - - - - - -
30/02:30am 22.9 ENE 8 9 1013.8 - - - - - - - - -
30/02:00am 22.9 E 8 9 1013.8 - - - - - - - - -
30/01:30am 23.0 E 7 8 1014.1 - - - - - - - - -
30/01:00am 23.1 ENE 9 10 1014.2 - - - - - - - - -
30/12:30am 23.2 ENE 9 10 1014.4 - - - - - - - - -
30/12:00am 23.3 E 9 10 1014.5 - - - - - - - - -
 
Date/Time
EST
Temp

°C
Wind Pressure Rain
since 9am
mm
Weather Cloud Vis
km
Sea
Height
m
Swell
Dir
 
Speed
knots
Gust
knots
hPa Trend Height
m
Period
s
Dir
29/11:30pm 23.4 ENE 8 9 1014.7 - - - - - - - - -
29/11:00pm 23.5 ENE 9 10 1014.9 - - - - - - - - -
29/10:30pm 23.5 ENE 7 9 1014.9 - - - - - - - - -
29/10:00pm 23.5 ENE 5 8 1015.0 - - - - - - - - -
29/09:30pm 23.6 NNE 5 6 1014.8 - - - - - - - - -
29/09:00pm 23.5 N 6 8 1014.5 - - - - - - - - -
29/08:30pm 23.5 N 9 11 1014.1 - - - - - - - - -
29/08:00pm 23.7 N 11 13 1013.6 - - - - - - - - -
29/07:30pm 23.7 N 13 15 1013.1 - - - - - - - - -
29/07:00pm 23.7 N 14 16 1012.6 - - - - - - - - -
29/06:30pm 23.8 N 14 16 1012.4 - - - - - - - - -
29/06:00pm 23.8 N 15 17 1012.1 - - - - - - - - -
29/05:30pm 23.9 N 15 18 1011.8 - - - - - - - - -
29/05:00pm 24.0 N 16 19 1011.5 - - - - - - - - -
29/04:30pm 24.0 N 17 19 1011.2 - - - - - - - - -
29/04:00pm 24.0 N 15 18 1011.1 - - - - - - - - -
29/03:30pm 24.0 N 18 20 1010.9 - - - - - - - - -
29/03:00pm 24.1 N 18 20 1011.1 - - - - - - - - -
29/02:30pm 24.1 N 17 20 1011.4 - - - - - - - - -
29/02:00pm 24.1 N 17 20 1011.5 - - - - - - - - -
29/01:30pm 24.4 NNE 15 18 1011.8 - - - - - - - - -
29/01:00pm 24.3 N 16 18 1012.0 - - - - - - - - -
29/12:30pm 24.4 N 13 15 1012.2 - - - - - - - - -
29/12:00pm 24.0 N 14 16 1012.3 - - - - - - - - -
29/11:30am 24.0 N 14 16 1012.6 - - - - - - - - -
29/11:00am 23.8 N 12 13 1013.0 - - - - - - - - -
29/10:30am 23.5 N 13 14 1013.3 - - - - - - - - -
29/10:00am 23.9 N 11 12 1013.6 - - - - - - - - -
29/09:30am 23.8 N 7 8 1013.8 - - - - - - - - -
29/09:00am 24.1 NNW 12 14 1013.6 - - - - - - - - -
29/08:30am 23.6 NW 15 17 1013.3 - - - - - - - - -
29/08:00am 23.9 NW 14 16 1013.4 - - - - - - - - -
29/07:30am 23.7 NW 13 15 1013.4 - - - - - - - - -
29/07:00am 23.4 NW 13 15 1013.3 - - - - - - - - -
29/06:30am 23.3 NW 15 18 1012.9 - - - - - - - - -
29/06:00am 23.2 NNW 14 16 1012.8 - - - - - - - - -
29/05:30am 23.0 NNW 15 17 1012.4 - - - - - - - - -
29/05:00am 23.1 NNW 14 16 1012.3 - - - - - - - - -
29/04:30am 23.1 N 15 17 1012.2 - - - - - - - - -
29/04:00am 23.1 N 15 17 1011.9 - - - - - - - - -
29/03:30am 23.2 N 13 14 1012.4 - - - - - - - - -
29/03:00am 23.1 NNE 10 12 1012.7 - - - - - - - - -
29/02:30am 23.3 N 8 9 1012.7 - - - - - - - - -
29/02:00am 23.6 N 7 9 1012.6 - - - - - - - - -
29/01:30am 23.8 W 3 9 1012.8 - - - - - - - - -
29/01:00am 23.9 WNW 8 11 1013.1 - - - - - - - - -
29/12:30am 23.8 NNW 18 25 1012.5 - - - - - - - - -
29/12:00am 23.6 NNW 20 24 1010.7 - - - - - - - - -
 
Date/Time
EST
Temp

°C
Wind Pressure Rain
since 9am
mm
Weather Cloud Vis
km
Sea
Height
m
Swell
Dir
 
Speed
knots
Gust
knots
hPa Trend Height
m
Period
s
Dir
28/11:30pm 23.7 N 20 23 1010.6 - - - - - - - - -
28/11:00pm 23.7 N 20 22 1011.1 - - - - - - - - -
28/10:30pm 23.7 NNW 19 22 1011.4 - - - - - - - - -
28/10:00pm 23.6 NNW 18 21 1012.0 - - - - - - - - -
28/09:30pm 23.6 NNW 18 21 1012.6 - - - - - - - - -
28/09:00pm 23.8 NW 16 20 1013.7 - - - - - - - - -
28/08:30pm 23.7 NNW 19 23 1013.4 - - - - - - - - -
28/08:28pm 23.6 NNW 20 24 1013.1 - - - - - - - - -

Other Formats:

Comma delimited format used in spreadsheet applications
http://www.bom.gov.au/fwo/IDQ60701/IDQ60701.94378.axf

JavaScript Object Notation format (JSON) in row-major order
http://www.bom.gov.au/fwo/IDQ60701/IDQ60701.94378.json